sensor_id;sensor_type;location;lat;lon;timestamp;pressure;altitude;pressure_sealevel;temperature;humidity
37634;BME280;32048;49.902;22.508;2022-08-01T00:00:13;98298.41;;;15.82;100.00
37634;BME280;32048;49.902;22.508;2022-08-01T00:03:00;98300.97;;;15.84;100.00
37634;BME280;32048;49.902;22.508;2022-08-01T00:05:28;98303.84;;;15.80;100.00
37634;BME280;32048;49.902;22.508;2022-08-01T00:07:55;98294.06;;;15.81;100.00
37634;BME280;32048;49.902;22.508;2022-08-01T00:10:22;98302.91;;;15.82;100.00
37634;BME280;32048;49.902;22.508;2022-08-01T00:12:49;98302.78;;;15.83;100.00
37634;BME280;32048;49.902;22.508;2022-08-01T00:15:17;98302.66;;;15.85;100.00
37634;BME280;32048;49.902;22.508;2022-08-01T00:17:44;98301.69;;;15.86;100.00
37634;BME280;32048;49.902;22.508;2022-08-01T00:20:13;98298.88;;;15.87;100.00
37634;BME280;32048;49.902;22.508;2022-08-01T00:22:40;98298.19;;;15.85;100.00
37634;BME280;32048;49.902;22.508;2022-08-01T00:25:08;98304.22;;;15.87;100.00
37634;BME280;32048;49.902;22.508;2022-08-01T00:27:35;98305.06;;;15.88;100.00
37634;BME280;32048;49.902;22.508;2022-08-01T00:30:04;98299.13;;;15.84;100.00
37634;BME280;32048;49.902;22.508;2022-08-01T00:32:41;98306.28;;;15.84;100.00
37634;BME280;32048;49.902;22.508;2022-08-01T00:35:08;98293.09;;;15.82;100.00
37634;BME280;32048;49.902;22.508;2022-08-01T00:37:35;98295.88;;;15.80;100.00
37634;BME280;32048;49.902;22.508;2022-08-01T00:40:02;98300.34;;;15.80;100.00
37634;BME280;32048;49.902;22.508;2022-08-01T00:42:29;98297.84;;;15.78;100.00
37634;BME280;32048;49.902;22.508;2022-08-01T00:44:56;98294.44;;;15.76;100.00
37634;BME280;32048;49.902;22.508;2022-08-01T00:47:23;98292.75;;;15.75;100.00
37634;BME280;32048;49.902;22.508;2022-08-01T00:49:50;98294.44;;;15.76;100.00
37634;BME280;32048;49.902;22.508;2022-08-01T00:52:17;98287.88;;;15.69;100.00
37634;BME280;32048;49.902;22.508;2022-08-01T00:54:45;98293.00;;;15.72;100.00
37634;BME280;32048;49.902;22.508;2022-08-01T00:57:12;98294.19;;;15.68;100.00
37634;BME280;32048;49.902;22.508;2022-08-01T00:59:41;98290.53;;;15.69;100.00
37634;BME280;32048;49.902;22.508;2022-08-01T01:02:09;98289.84;;;15.67;100.00
37634;BME280;32048;49.902;22.508;2022-08-01T01:04:42;98293.34;;;15.68;100.00
37634;BME280;32048;49.902;22.508;2022-08-01T01:07:17;98290.78;;;15.66;100.00
37634;BME280;32048;49.902;22.508;2022-08-01T01:12:43;98291.06;;;15.63;100.00
37634;BME280;32048;49.902;22.508;2022-08-01T01:15:23;98284.63;;;15.66;100.00
37634;BME280;32048;49.902;22.508;2022-08-01T01:26:21;98287.50;;;15.63;100.00
37634;BME280;32048;49.902;22.508;2022-08-01T01:31:42;98277.00;;;15.61;100.00
37634;BME280;32048;49.902;22.508;2022-08-01T01:34:12;98283.91;;;15.64;100.00
37634;BME280;32048;49.902;22.508;2022-08-01T01:36:40;98278.56;;;15.64;100.00
37634;BME280;32048;49.902;22.508;2022-08-01T01:39:11;98275.19;;;15.62;100.00
37634;BME280;32048;49.902;22.508;2022-08-01T01:41:38;98278.69;;;15.62;100.00
37634;BME280;32048;49.902;22.508;2022-08-01T01:44:06;98278.13;;;15.58;100.00
37634;BME280;32048;49.902;22.508;2022-08-01T01:46:35;98277.25;;;15.58;100.00
37634;BME280;32048;49.902;22.508;2022-08-01T01:49:03;98282.72;;;15.56;100.00
37634;BME280;32048;49.902;22.508;2022-08-01T01:51:31;98286.31;;;15.55;100.00
37634;BME280;32048;49.902;22.508;2022-08-01T01:54:00;98290.91;;;15.53;100.00
37634;BME280;32048;49.902;22.508;2022-08-01T01:56:29;98285.47;;;15.55;100.00
37634;BME280;32048;49.902;22.508;2022-08-01T01:59:00;98278.59;;;15.52;100.00
37634;BME280;32048;49.902;22.508;2022-08-01T02:01:29;98281.38;;;15.51;100.00
37634;BME280;32048;49.902;22.508;2022-08-01T02:04:19;98282.47;;;15.48;100.00
37634;BME280;32048;49.902;22.508;2022-08-01T02:06:51;98290.44;;;15.48;100.00
37634;BME280;32048;49.902;22.508;2022-08-01T02:09:20;98291.19;;;15.50;100.00
37634;BME280;32048;49.902;22.508;2022-08-01T02:11:49;98290.34;;;15.50;100.00
37634;BME280;32048;49.902;22.508;2022-08-01T02:14:35;98297.59;;;15.48;100.00
37634;BME280;32048;49.902;22.508;2022-08-01T02:17:02;98294.56;;;15.41;100.00
37634;BME280;32048;49.902;22.508;2022-08-01T02:19:33;98295.28;;;15.43;100.00
37634;BME280;32048;49.902;22.508;2022-08-01T02:22:14;98291.91;;;15.41;100.00
37634;BME280;32048;49.902;22.508;2022-08-01T02:30:24;98300.47;;;15.45;100.00
37634;BME280;32048;49.902;22.508;2022-08-01T02:33:05;98297.22;;;15.41;100.00
37634;BME280;32048;49.902;22.508;2022-08-01T02:35:41;98299.06;;;15.41;100.00
37634;BME280;32048;49.902;22.508;2022-08-01T02:38:31;98302.28;;;15.44;100.00
37634;BME280;32048;49.902;22.508;2022-08-01T02:41:03;98303.13;;;15.45;100.00
37634;BME280;32048;49.902;22.508;2022-08-01T02:43:34;98301.34;;;15.45;100.00
37634;BME280;32048;49.902;22.508;2022-08-01T02:46:04;98306.66;;;15.45;100.00
37634;BME280;32048;49.902;22.508;2022-08-01T02:48:34;98311.00;;;15.46;100.00
37634;BME280;32048;49.902;22.508;2022-08-01T02:51:03;98312.72;;;15.47;100.00
37634;BME280;32048;49.902;22.508;2022-08-01T02:53:33;98311.63;;;15.50;100.00
37634;BME280;32048;49.902;22.508;2022-08-01T02:56:11;98315.22;;;15.49;100.00
37634;BME280;32048;49.902;22.508;2022-08-01T02:58:39;98315.13;;;15.39;100.00
37634;BME280;32048;49.902;22.508;2022-08-01T03:01:08;98317.41;;;15.44;100.00
37634;BME280;32048;49.902;22.508;2022-08-01T03:03:37;98323.47;;;15.46;100.00
37634;BME280;32048;49.902;22.508;2022-08-01T03:06:05;98319.97;;;15.45;100.00
37634;BME280;32048;49.902;22.508;2022-08-01T03:08:34;98319.97;;;15.45;100.00
37634;BME280;32048;49.902;22.508;2022-08-01T03:11:03;98323.38;;;15.47;100.00
37634;BME280;32048;49.902;22.508;2022-08-01T03:13:32;98326.88;;;15.48;100.00
37634;BME280;32048;49.902;22.508;2022-08-01T03:16:01;98331.44;;;15.46;100.00
37634;BME280;32048;49.902;22.508;2022-08-01T03:18:30;98319.09;;;15.45;100.00
37634;BME280;32048;49.902;22.508;2022-08-01T03:20:59;98326.13;;;15.46;100.00
37634;BME280;32048;49.902;22.508;2022-08-01T03:23:29;98334.13;;;15.46;100.00
37634;BME280;32048;49.902;22.508;2022-08-01T03:26:05;98332.06;;;15.49;100.00
37634;BME280;32048;49.902;22.508;2022-08-01T03:28:32;98324.31;;;15.46;100.00
37634;BME280;32048;49.902;22.508;2022-08-01T03:31:00;98320.69;;;15.47;100.00
37634;BME280;32048;49.902;22.508;2022-08-01T03:33:28;98332.28;;;15.46;100.00
37634;BME280;32048;49.902;22.508;2022-08-01T03:35:57;98327.94;;;15.45;100.00
37634;BME280;32048;49.902;22.508;2022-08-01T03:38:25;98321.66;;;15.46;100.00
37634;BME280;32048;49.902;22.508;2022-08-01T03:40:56;98318.03;;;15.47;100.00
37634;BME280;32048;49.902;22.508;2022-08-01T03:43:38;98318.16;;;15.46;100.00
37634;BME280;32048;49.902;22.508;2022-08-01T03:46:12;98325.41;;;15.44;100.00
37634;BME280;32048;49.902;22.508;2022-08-01T03:48:43;98334.00;;;15.47;100.00
37634;BME280;32048;49.902;22.508;2022-08-01T03:51:15;98337.41;;;15.49;100.00
37634;BME280;32048;49.902;22.508;2022-08-01T03:53:44;98328.31;;;15.52;100.00
37634;BME280;32048;49.902;22.508;2022-08-01T03:56:13;98335.22;;;15.54;100.00
37634;BME280;32048;49.902;22.508;2022-08-01T03:58:43;98337.13;;;15.52;100.00
37634;BME280;32048;49.902;22.508;2022-08-01T04:01:16;98337.03;;;15.54;100.00
37634;BME280;32048;49.902;22.508;2022-08-01T04:03:44;98342.47;;;15.52;100.00
37634;BME280;32048;49.902;22.508;2022-08-01T04:06:11;98341.00;;;15.48;100.00
37634;BME280;32048;49.902;22.508;2022-08-01T04:08:41;98339.06;;;15.50;100.00
37634;BME280;32048;49.902;22.508;2022-08-01T04:11:09;98346.06;;;15.51;100.00
37634;BME280;32048;49.902;22.508;2022-08-01T04:13:36;98342.56;;;15.51;100.00
37634;BME280;32048;49.902;22.508;2022-08-01T04:16:04;98334.22;;;15.55;100.00
37634;BME280;32048;49.902;22.508;2022-08-01T04:18:32;98344.88;;;15.55;100.00
37634;BME280;32048;49.902;22.508;2022-08-01T04:20:58;98341.97;;;15.58;100.00
37634;BME280;32048;49.902;22.508;2022-08-01T04:23:27;98341.72;;;15.62;100.00
37634;BME280;32048;49.902;22.508;2022-08-01T04:25:59;98349.59;;;15.63;100.00
37634;BME280;32048;49.902;22.508;2022-08-01T04:28:33;98349.34;;;15.66;100.00
37634;BME280;32048;49.902;22.508;2022-08-01T04:31:02;98345.59;;;15.69;100.00
37634;BME280;32048;49.902;22.508;2022-08-01T04:33:32;98346.25;;;15.72;100.00
37634;BME280;32048;49.902;22.508;2022-08-01T04:36:04;98356.53;;;15.77;100.00
37634;BME280;32048;49.902;22.508;2022-08-01T04:38:34;98352.88;;;15.78;100.00
37634;BME280;32048;49.902;22.508;2022-08-01T04:41:04;98357.97;;;15.81;100.00
37634;BME280;32048;49.902;22.508;2022-08-01T04:43:36;98354.81;;;15.76;100.00
37634;BME280;32048;49.902;22.508;2022-08-01T04:46:05;98359.66;;;15.71;100.00
37634;BME280;32048;49.902;22.508;2022-08-01T04:48:33;98364.22;;;15.69;100.00
37634;BME280;32048;49.902;22.508;2022-08-01T04:51:01;98375.84;;;15.68;100.00
37634;BME280;32048;49.902;22.508;2022-08-01T04:53:28;98363.63;;;15.65;100.00
37634;BME280;32048;49.902;22.508;2022-08-01T04:55:55;98373.41;;;15.65;100.00
37634;BME280;32048;49.902;22.508;2022-08-01T04:58:22;98380.56;;;15.64;100.00
37634;BME280;32048;49.902;22.508;2022-08-01T05:00:49;98365.94;;;15.58;100.00
37634;BME280;32048;49.902;22.508;2022-08-01T05:03:16;98372.69;;;15.63;100.00
37634;BME280;32048;49.902;22.508;2022-08-01T05:05:43;98374.50;;;15.62;100.00
37634;BME280;32048;49.902;22.508;2022-08-01T05:08:10;98377.78;;;15.66;100.00
37634;BME280;32048;49.902;22.508;2022-08-01T05:10:37;98376.69;;;15.68;100.00
37634;BME280;32048;49.902;22.508;2022-08-01T05:26:01;98382.97;;;16.56;100.00
37634;BME280;32048;49.902;22.508;2022-08-01T05:28:28;98381.53;;;16.52;100.00
37634;BME280;32048;49.902;22.508;2022-08-01T05:30:55;98385.03;;;16.52;100.00
37634;BME280;32048;49.902;22.508;2022-08-01T05:33:23;98377.56;;;16.46;100.00
37634;BME280;32048;49.902;22.508;2022-08-01T05:35:50;98369.44;;;16.48;100.00
37634;BME280;32048;49.902;22.508;2022-08-01T05:38:17;98381.81;;;16.49;100.00
37634;BME280;32048;49.902;22.508;2022-08-01T05:40:44;98384.34;;;16.50;100.00
37634;BME280;32048;49.902;22.508;2022-08-01T05:43:11;98385.31;;;16.49;100.00
37634;BME280;32048;49.902;22.508;2022-08-01T05:45:38;98378.16;;;16.50;100.00
37634;BME280;32048;49.902;22.508;2022-08-01T05:48:05;98384.34;;;16.50;100.00
37634;BME280;32048;49.902;22.508;2022-08-01T05:50:33;98382.97;;;16.56;100.00
37634;BME280;32048;49.902;22.508;2022-08-01T05:53:00;98381.88;;;16.58;100.00
37634;BME280;32048;49.902;22.508;2022-08-01T05:55:27;98383.59;;;16.59;100.00
37634;BME280;32048;49.902;22.508;2022-08-01T05:57:54;98377.16;;;16.62;100.00
37634;BME280;32048;49.902;22.508;2022-08-01T06:00:21;98382.09;;;16.67;100.00
37634;BME280;32048;49.902;22.508;2022-08-01T06:02:48;98377.00;;;16.75;100.00
37634;BME280;32048;49.902;22.508;2022-08-01T06:05:15;98386.41;;;16.79;100.00
37634;BME280;32048;49.902;22.508;2022-08-01T06:07:42;98381.81;;;16.81;100.00
37634;BME280;32048;49.902;22.508;2022-08-01T06:10:09;98392.38;;;16.82;100.00
37634;BME280;32048;49.902;22.508;2022-08-01T06:12:37;98390.53;;;16.83;100.00
37634;BME280;32048;49.902;22.508;2022-08-01T06:15:05;98391.66;;;16.80;100.00
37634;BME280;32048;49.902;22.508;2022-08-01T06:17:33;98400.97;;;16.75;100.00
37634;BME280;32048;49.902;22.508;2022-08-01T06:20:00;98398.56;;;16.72;100.00
37634;BME280;32048;49.902;22.508;2022-08-01T06:22:27;98404.72;;;16.72;100.00
37634;BME280;32048;49.902;22.508;2022-08-01T06:24:56;98396.72;;;16.72;100.00
37634;BME280;32048;49.902;22.508;2022-08-01T06:27:23;98407.88;;;16.77;100.00
37634;BME280;32048;49.902;22.508;2022-08-01T06:29:52;98405.69;;;16.82;100.00
37634;BME280;32048;49.902;22.508;2022-08-01T06:32:23;98410.03;;;16.83;100.00
37634;BME280;32048;49.902;22.508;2022-08-01T06:34:54;98405.97;;;16.79;100.00
37634;BME280;32048;49.902;22.508;2022-08-01T06:37:22;98413.22;;;16.77;100.00
37634;BME280;32048;49.902;22.508;2022-08-01T06:39:49;98413.31;;;16.76;100.00
37634;BME280;32048;49.902;22.508;2022-08-01T06:42:16;98412.34;;;16.77;100.00
37634;BME280;32048;49.902;22.508;2022-08-01T06:44:44;98414.81;;;16.80;100.00
37634;BME280;32048;49.902;22.508;2022-08-01T06:47:12;98419.16;;;16.81;100.00
37634;BME280;32048;49.902;22.508;2022-08-01T06:49:39;98424.84;;;16.76;100.00
37634;BME280;32048;49.902;22.508;2022-08-01T06:52:06;98426.66;;;16.76;100.00
37634;BME280;32048;49.902;22.508;2022-08-01T06:54:33;98430.81;;;16.80;100.00
37634;BME280;32048;49.902;22.508;2022-08-01T06:57:00;98430.66;;;16.81;100.00
37634;BME280;32048;49.902;22.508;2022-08-01T06:59:31;98427.75;;;16.85;100.00
37634;BME280;32048;49.902;22.508;2022-08-01T07:01:58;98419.38;;;16.89;100.00
37634;BME280;32048;49.902;22.508;2022-08-01T07:04:25;98428.16;;;17.01;100.00
37634;BME280;32048;49.902;22.508;2022-08-01T07:06:52;98422.75;;;17.12;100.00
37634;BME280;32048;49.902;22.508;2022-08-01T07:09:19;98420.75;;;17.25;100.00
37634;BME280;32048;49.902;22.508;2022-08-01T07:11:46;98429.69;;;17.36;100.00
37634;BME280;32048;49.902;22.508;2022-08-01T07:14:13;98431.69;;;17.43;100.00
37634;BME280;32048;49.902;22.508;2022-08-01T07:16:39;98426.41;;;17.53;100.00
37634;BME280;32048;49.902;22.508;2022-08-01T07:19:07;98429.38;;;17.60;100.00
37634;BME280;32048;49.902;22.508;2022-08-01T07:21:34;98430.09;;;17.62;100.00
37634;BME280;32048;49.902;22.508;2022-08-01T07:24:07;98436.16;;;17.64;100.00
37634;BME280;32048;49.902;22.508;2022-08-01T07:26:45;98430.09;;;17.62;100.00
37634;BME280;32048;49.902;22.508;2022-08-01T07:29:22;98435.41;;;17.52;100.00
37634;BME280;32048;49.902;22.508;2022-08-01T07:31:49;98436.63;;;17.48;100.00
37634;BME280;32048;49.902;22.508;2022-08-01T07:34:16;98440.00;;;17.50;100.00
37634;BME280;32048;49.902;22.508;2022-08-01T07:36:43;98444.13;;;17.54;100.00
37634;BME280;32048;49.902;22.508;2022-08-01T07:39:11;98440.47;;;17.55;100.00
37634;BME280;32048;49.902;22.508;2022-08-01T07:41:38;98449.47;;;17.54;100.00
37634;BME280;32048;49.902;22.508;2022-08-01T07:44:25;98451.84;;;17.57;100.00
37634;BME280;32048;49.902;22.508;2022-08-01T07:46:54;98447.63;;;17.55;100.00
37634;BME280;32048;49.902;22.508;2022-08-01T07:49:21;98447.00;;;17.62;100.00
37634;BME280;32048;49.902;22.508;2022-08-01T07:51:49;98448.41;;;17.66;100.00
37634;BME280;32048;49.902;22.508;2022-08-01T07:54:36;98458.03;;;17.79;100.00
37634;BME280;32048;49.902;22.508;2022-08-01T07:57:04;98452.31;;;17.83;100.00
37634;BME280;32048;49.902;22.508;2022-08-01T07:59:32;98451.91;;;17.88;100.00
37634;BME280;32048;49.902;22.508;2022-08-01T08:01:59;98448.72;;;17.94;100.00
37634;BME280;32048;49.902;22.508;2022-08-01T08:04:27;98458.00;;;18.00;100.00
37634;BME280;32048;49.902;22.508;2022-08-01T08:06:54;98456.06;;;18.02;100.00
37634;BME280;32048;49.902;22.508;2022-08-01T08:09:21;98463.22;;;18.01;100.00
37634;BME280;32048;49.902;22.508;2022-08-01T08:11:48;98468.56;;;18.01;100.00
37634;BME280;32048;49.902;22.508;2022-08-01T08:14:16;98477.72;;;17.99;100.00
37634;BME280;32048;49.902;22.508;2022-08-01T08:16:43;98469.81;;;17.97;100.00
37634;BME280;32048;49.902;22.508;2022-08-01T08:19:11;98470.66;;;17.98;100.00
37634;BME280;32048;49.902;22.508;2022-08-01T08:21:38;98468.25;;;17.95;100.00
37634;BME280;32048;49.902;22.508;2022-08-01T08:24:07;98479.22;;;17.92;100.00
37634;BME280;32048;49.902;22.508;2022-08-01T08:26:57;98478.03;;;17.84;100.00
37634;BME280;32048;49.902;22.508;2022-08-01T08:29:27;98481.91;;;17.92;100.00
37634;BME280;32048;49.902;22.508;2022-08-01T08:31:57;98487.56;;;17.98;100.00
37634;BME280;32048;49.902;22.508;2022-08-01T08:34:25;98485.84;;;17.97;100.00
37634;BME280;32048;49.902;22.508;2022-08-01T08:36:53;98481.97;;;18.11;100.00
37634;BME280;32048;49.902;22.508;2022-08-01T08:39:22;98484.13;;;18.27;100.00
37634;BME280;32048;49.902;22.508;2022-08-01T08:41:49;98487.47;;;18.50;100.00
37634;BME280;32048;49.902;22.508;2022-08-01T08:44:17;98488.78;;;18.65;100.00
37634;BME280;32048;49.902;22.508;2022-08-01T08:46:47;98485.13;;;18.76;100.00
37634;BME280;32048;49.902;22.508;2022-08-01T08:49:18;98489.25;;;18.90;100.00
37634;BME280;32048;49.902;22.508;2022-08-01T08:51:48;98492.09;;;18.98;100.00
37634;BME280;32048;49.902;22.508;2022-08-01T08:54:17;98499.00;;;19.10;100.00
37634;BME280;32048;49.902;22.508;2022-08-01T08:56:45;98497.31;;;19.19;100.00
37634;BME280;32048;49.902;22.508;2022-08-01T08:59:13;98511.13;;;19.24;100.00
37634;BME280;32048;49.902;22.508;2022-08-01T09:01:41;98511.81;;;19.36;100.00
37634;BME280;32048;49.902;22.508;2022-08-01T09:04:09;98504.22;;;19.51;100.00
37634;BME280;32048;49.902;22.508;2022-08-01T09:06:37;98510.81;;;19.66;100.00
37634;BME280;32048;49.902;22.508;2022-08-01T09:09:05;98519.28;;;19.91;100.00
37634;BME280;32048;49.902;22.508;2022-08-01T09:11:32;98511.72;;;20.14;100.00
37634;BME280;32048;49.902;22.508;2022-08-01T09:14:05;98519.66;;;20.33;99.32
37634;BME280;32048;49.902;22.508;2022-08-01T09:16:34;98525.41;;;20.48;98.57
37634;BME280;32048;49.902;22.508;2022-08-01T09:19:12;98517.88;;;20.62;97.30
37634;BME280;32048;49.902;22.508;2022-08-01T09:22:05;98525.28;;;20.77;96.92
37634;BME280;32048;49.902;22.508;2022-08-01T09:24:34;98531.69;;;20.94;94.83
37634;BME280;32048;49.902;22.508;2022-08-01T09:27:15;98534.38;;;21.12;93.71
37634;BME280;32048;49.902;22.508;2022-08-01T09:29:47;98523.34;;;21.33;92.52
37634;BME280;32048;49.902;22.508;2022-08-01T09:32:28;98528.66;;;21.43;89.86
37634;BME280;32048;49.902;22.508;2022-08-01T09:38:22;98522.59;;;21.41;90.38
37634;BME280;32048;49.902;22.508;2022-08-01T09:40:57;98520.75;;;21.59;90.52
37634;BME280;32048;49.902;22.508;2022-08-01T09:43:27;98517.78;;;21.89;90.18
37634;BME280;32048;49.902;22.508;2022-08-01T09:45:55;98524.63;;;22.09;86.60
37634;BME280;32048;49.902;22.508;2022-08-01T09:48:24;98521.06;;;22.27;82.64
37634;BME280;32048;49.902;22.508;2022-08-01T09:50:56;98522.50;;;22.47;83.31
37634;BME280;32048;49.902;22.508;2022-08-01T09:53:47;98523.63;;;22.79;83.71
37634;BME280;32048;49.902;22.508;2022-08-01T09:56:19;98522.72;;;23.04;77.92
37634;BME280;32048;49.902;22.508;2022-08-01T09:58:50;98515.66;;;23.20;76.80
37634;BME280;32048;49.902;22.508;2022-08-01T10:01:25;98517.22;;;23.39;76.34
37634;BME280;32048;49.902;22.508;2022-08-01T10:06:37;98517.22;;;23.72;75.61
37634;BME280;32048;49.902;22.508;2022-08-01T10:09:04;98515.06;;;23.75;74.13
37634;BME280;32048;49.902;22.508;2022-08-01T10:11:32;98505.44;;;23.89;74.30
37634;BME280;32048;49.902;22.508;2022-08-01T10:14:03;98513.63;;;24.20;74.36
37634;BME280;32048;49.902;22.508;2022-08-01T10:16:32;98505.78;;;24.58;72.59
37634;BME280;32048;49.902;22.508;2022-08-01T10:19:07;98512.53;;;24.94;68.48
37634;BME280;32048;49.902;22.508;2022-08-01T10:21:41;98509.84;;;25.17;68.84
37634;BME280;32048;49.902;22.508;2022-08-01T10:24:23;98504.63;;;25.61;65.63
37634;BME280;32048;49.902;22.508;2022-08-01T10:26:57;98497.84;;;26.03;65.17
37634;BME280;32048;49.902;22.508;2022-08-01T10:32:12;98492.44;;;26.99;58.79
37634;BME280;32048;49.902;22.508;2022-08-01T10:34:40;98496.13;;;27.49;57.36
37634;BME280;32048;49.902;22.508;2022-08-01T10:37:12;98502.50;;;27.85;55.69
37634;BME280;32048;49.902;22.508;2022-08-01T10:39:42;98496.25;;;28.12;53.12
37634;BME280;32048;49.902;22.508;2022-08-01T10:42:11;98494.44;;;27.98;49.64
37634;BME280;32048;49.902;22.508;2022-08-01T10:44:42;98496.94;;;27.93;50.80
37634;BME280;32048;49.902;22.508;2022-08-01T10:47:17;98498.16;;;27.90;49.67
37634;BME280;32048;49.902;22.508;2022-08-01T10:50:03;98496.69;;;27.66;48.42
37634;BME280;32048;49.902;22.508;2022-08-01T10:52:32;98497.56;;;27.95;48.64
37634;BME280;32048;49.902;22.508;2022-08-01T10:55:07;98499.88;;;28.26;45.82
37634;BME280;32048;49.902;22.508;2022-08-01T10:57:47;98501.78;;;28.67;44.97
37634;BME280;32048;49.902;22.508;2022-08-01T11:00:20;98501.13;;;29.13;42.48
37634;BME280;32048;49.902;22.508;2022-08-01T11:03:01;98497.41;;;29.34;40.91
37634;BME280;32048;49.902;22.508;2022-08-01T11:05:34;98491.19;;;29.87;39.77
37634;BME280;32048;49.902;22.508;2022-08-01T11:08:10;98497.63;;;30.26;38.11
37634;BME280;32048;49.902;22.508;2022-08-01T11:10:39;98489.38;;;30.59;38.68
37634;BME280;32048;49.902;22.508;2022-08-01T11:13:11;98491.00;;;30.74;38.37
37634;BME280;32048;49.902;22.508;2022-08-01T11:15:39;98489.13;;;30.74;37.57
37634;BME280;32048;49.902;22.508;2022-08-01T11:18:36;98479.28;;;31.75;36.53
37634;BME280;32048;49.902;22.508;2022-08-01T11:21:04;98485.19;;;32.78;35.63
37634;BME280;32048;49.902;22.508;2022-08-01T11:23:51;98482.19;;;33.70;31.94
37634;BME280;32048;49.902;22.508;2022-08-01T11:26:21;98472.47;;;33.98;31.38
37634;BME280;32048;49.902;22.508;2022-08-01T11:29:13;98483.03;;;33.28;32.68
37634;BME280;32048;49.902;22.508;2022-08-01T11:31:47;98477.91;;;32.71;33.90
37634;BME280;32048;49.902;22.508;2022-08-01T11:34:15;98475.38;;;32.15;35.25
37634;BME280;32048;49.902;22.508;2022-08-01T11:36:42;98482.19;;;31.80;35.10
37634;BME280;32048;49.902;22.508;2022-08-01T11:39:26;98473.09;;;31.61;36.15
37634;BME280;32048;49.902;22.508;2022-08-01T11:41:55;98473.72;;;31.88;36.46
37634;BME280;32048;49.902;22.508;2022-08-01T11:44:49;98468.09;;;32.27;33.68
37634;BME280;32048;49.902;22.508;2022-08-01T11:47:16;98465.06;;;32.72;33.55
37634;BME280;32048;49.902;22.508;2022-08-01T11:49:48;98478.34;;;32.68;32.87
37634;BME280;32048;49.902;22.508;2022-08-01T11:52:26;98469.97;;;32.51;34.01
37634;BME280;32048;49.902;22.508;2022-08-01T11:55:05;98475.16;;;32.16;33.40
37634;BME280;32048;49.902;22.508;2022-08-01T11:57:36;98472.25;;;31.61;34.69
37634;BME280;32048;49.902;22.508;2022-08-01T12:00:13;98471.34;;;31.10;35.48
37634;BME280;32048;49.902;22.508;2022-08-01T12:02:53;98472.97;;;30.73;35.49
37634;BME280;32048;49.902;22.508;2022-08-01T12:05:26;98463.94;;;30.27;34.83
37634;BME280;32048;49.902;22.508;2022-08-01T12:07:57;98463.34;;;29.92;35.06
37634;BME280;32048;49.902;22.508;2022-08-01T12:10:27;98460.59;;;29.98;36.05
37634;BME280;32048;49.902;22.508;2022-08-01T12:12:59;98462.88;;;30.28;33.06
37634;BME280;32048;49.902;22.508;2022-08-01T12:15:32;98461.72;;;30.56;30.87
37634;BME280;32048;49.902;22.508;2022-08-01T12:18:04;98462.38;;;30.96;31.36
37634;BME280;32048;49.902;22.508;2022-08-01T12:20:34;98455.69;;;31.31;31.48
37634;BME280;32048;49.902;22.508;2022-08-01T12:23:04;98462.84;;;31.25;31.75
37634;BME280;32048;49.902;22.508;2022-08-01T12:25:35;98458.84;;;31.84;29.00
37634;BME280;32048;49.902;22.508;2022-08-01T12:28:04;98458.41;;;32.31;28.43
37634;BME280;32048;49.902;22.508;2022-08-01T12:30:32;98459.88;;;32.82;27.63
37634;BME280;32048;49.902;22.508;2022-08-01T12:33:08;98456.47;;;33.17;26.91
37634;BME280;32048;49.902;22.508;2022-08-01T12:35:37;98449.50;;;33.45;26.05
37634;BME280;32048;49.902;22.508;2022-08-01T12:38:08;98458.50;;;33.64;26.67
37634;BME280;32048;49.902;22.508;2022-08-01T12:40:42;98452.03;;;33.46;25.41
37634;BME280;32048;49.902;22.508;2022-08-01T12:43:17;98455.78;;;33.22;26.76
37634;BME280;32048;49.902;22.508;2022-08-01T12:45:53;98453.25;;;33.20;26.19
37634;BME280;32048;49.902;22.508;2022-08-01T12:48:24;98454.97;;;33.33;26.45
37634;BME280;32048;49.902;22.508;2022-08-01T12:50:52;98452.44;;;33.20;26.66
37634;BME280;32048;49.902;22.508;2022-08-01T12:53:20;98454.72;;;33.04;26.33
37634;BME280;32048;49.902;22.508;2022-08-01T12:55:53;98452.97;;;32.80;29.59
37634;BME280;32048;49.902;22.508;2022-08-01T12:58:32;98451.19;;;31.93;31.70
37634;BME280;32048;49.902;22.508;2022-08-01T13:01:05;98440.72;;;31.08;32.83
37634;BME280;32048;49.902;22.508;2022-08-01T13:03:33;98440.16;;;30.99;34.18
37634;BME280;32048;49.902;22.508;2022-08-01T13:06:00;98448.53;;;30.98;33.83
37634;BME280;32048;49.902;22.508;2022-08-01T13:08:32;98450.41;;;31.04;33.44
37634;BME280;32048;49.902;22.508;2022-08-01T13:11:10;98436.56;;;31.05;34.16
37634;BME280;32048;49.902;22.508;2022-08-01T13:13:46;98449.19;;;30.93;33.17
37634;BME280;32048;49.902;22.508;2022-08-01T13:16:21;98441.19;;;30.98;33.70
37634;BME280;32048;49.902;22.508;2022-08-01T13:19:04;98440.44;;;31.16;33.32
37634;BME280;32048;49.902;22.508;2022-08-01T13:21:32;98437.97;;;31.15;32.80
37634;BME280;32048;49.902;22.508;2022-08-01T13:24:29;98445.03;;;30.91;31.67
37634;BME280;32048;49.902;22.508;2022-08-01T13:27:03;98448.06;;;30.62;33.08
37634;BME280;32048;49.902;22.508;2022-08-01T13:29:33;98447.50;;;30.47;32.29
37634;BME280;32048;49.902;22.508;2022-08-01T13:32:19;98446.63;;;30.53;31.77
37634;BME280;32048;49.902;22.508;2022-08-01T13:35:03;98444.22;;;30.25;31.99
37634;BME280;32048;49.902;22.508;2022-08-01T13:37:31;98446.16;;;29.98;32.01
37634;BME280;32048;49.902;22.508;2022-08-01T13:39:58;98448.66;;;29.99;33.05
37634;BME280;32048;49.902;22.508;2022-08-01T13:42:25;98447.59;;;30.27;33.10